Time,TemperatureF,DewpointF,PressureIn,WindDirection,WindDirectionDegrees,WindSpeedMPH,WindSpeedGustMPH,Humidity,HourlyPrecipIn,Conditions,Clouds,dailyrainin,SoftwareType,DateUTC
2013-02-16 00:01:00,36.2,32.0,29.99,SE,126,0.0,2.0,85,0.00,,,0.00,weatherlink.com 1.10,2013-02-16 05:01:00,
2013-02-16 00:17:00,35.4,32.0,29.99,ESE,115,1.0,3.0,87,0.00,,,0.00,weatherlink.com 1.10,2013-02-16 05:17:00,
2013-02-16 00:31:00,34.6,32.0,29.99,ESE,118,0.0,1.0,89,0.01,,,0.01,weatherlink.com 1.10,2013-02-16 05:31:00,
2013-02-16 00:46:00,34.2,32.0,29.99,ESE,120,0.0,1.0,91,0.01,,,0.01,weatherlink.com 1.10,2013-02-16 05:46:00,
2013-02-16 01:01:00,33.9,32.0,29.99,ESE,122,0.0,1.0,92,0.02,,,0.02,weatherlink.com 1.10,2013-02-16 06:01:00,
2013-02-16 01:16:00,33.7,32.0,29.98,SE,124,0.0,1.0,92,0.02,,,0.02,weatherlink.com 1.10,2013-02-16 06:16:00,
2013-02-16 01:31:00,33.6,32.0,29.98,SE,124,0.0,1.0,92,0.02,,,0.03,weatherlink.com 1.10,2013-02-16 06:31:00,
2013-02-16 01:47:00,33.4,32.0,29.98,ESE,123,0.0,1.0,93,0.02,,,0.03,weatherlink.com 1.10,2013-02-16 06:47:00,
2013-02-16 02:01:00,33.4,32.0,29.97,ESE,123,0.0,0.0,93,0.01,,,0.03,weatherlink.com 1.10,2013-02-16 07:01:00,
2013-02-16 02:16:00,33.4,32.0,29.97,SE,126,1.0,1.0,93,0.01,,,0.03,weatherlink.com 1.10,2013-02-16 07:16:00,
2013-02-16 02:32:00,33.3,32.0,29.96,SE,125,0.0,1.0,93,0.00,,,0.03,weatherlink.com 1.10,2013-02-16 07:32:00,
2013-02-16 02:47:00,33.3,32.0,29.97,SE,127,0.0,1.0,94,0.00,,,0.03,weatherlink.com 1.10,2013-02-16 07:47:00,
2013-02-16 03:02:00,33.3,32.0,29.96,SE,127,0.0,0.0,94,0.00,,,0.03,weatherlink.com 1.10,2013-02-16 08:02:00,
2013-02-16 03:17:00,33.3,32.0,29.95,SE,127,0.0,1.0,94,0.00,,,0.03,weatherlink.com 1.10,2013-02-16 08:17:00,
2013-02-16 03:32:00,33.2,32.0,29.95,SE,127,0.0,0.0,94,0.00,,,0.03,weatherlink.com 1.10,2013-02-16 08:32:00,
2013-02-16 03:47:00,32.8,31.0,29.94,SE,127,0.0,0.0,94,0.00,,,0.03,weatherlink.com 1.10,2013-02-16 08:47:00,
2013-02-16 04:02:00,32.7,31.0,29.94,SE,127,0.0,0.0,94,0.00,,,0.03,weatherlink.com 1.10,2013-02-16 09:02:00,
2013-02-16 04:17:00,32.8,31.0,29.95,SE,127,0.0,0.0,94,0.00,,,0.03,weatherlink.com 1.10,2013-02-16 09:17:00,
2013-02-16 04:32:00,32.8,31.0,29.95,SE,127,0.0,0.0,94,0.00,,,0.03,weatherlink.com 1.10,2013-02-16 09:32:00,
2013-02-16 04:47:00,32.8,32.0,29.96,SE,127,0.0,0.0,95,0.00,,,0.03,weatherlink.com 1.10,2013-02-16 09:47:00,
2013-02-16 05:02:00,32.9,32.0,29.96,SE,127,0.0,0.0,95,0.00,,,0.03,weatherlink.com 1.10,2013-02-16 10:02:00,
2013-02-16 05:17:00,33.0,32.0,29.96,SE,127,0.0,1.0,95,0.00,,,0.03,weatherlink.com 1.10,2013-02-16 10:17:00,
2013-02-16 05:32:00,33.0,32.0,29.96,SE,127,0.0,0.0,95,0.00,,,0.03,weatherlink.com 1.10,2013-02-16 10:32:00,
2013-02-16 05:47:00,32.9,32.0,29.96,SE,127,0.0,0.0,95,0.00,,,0.03,weatherlink.com 1.10,2013-02-16 10:47:00,
2013-02-16 06:02:00,32.9,32.0,29.96,SE,127,0.0,0.0,95,0.00,,,0.03,weatherlink.com 1.10,2013-02-16 11:02:00,
2013-02-16 06:17:00,32.9,32.0,29.95,ESE,121,0.0,1.0,95,0.00,,,0.03,weatherlink.com 1.10,2013-02-16 11:17:00,
2013-02-16 06:32:00,32.6,31.0,29.95,SE,136,0.0,0.0,94,0.00,,,0.03,weatherlink.com 1.10,2013-02-16 11:32:00,
2013-02-16 06:47:00,32.5,31.0,29.96,South,172,0.0,1.0,94,0.00,,,0.03,weatherlink.com 1.10,2013-02-16 11:47:00,
2013-02-16 07:02:00,32.4,31.0,29.96,SW,228,0.0,1.0,94,0.00,,,0.03,weatherlink.com 1.10,2013-02-16 12:02:00,
2013-02-16 07:17:00,32.2,31.0,29.97,SE,134,0.0,1.0,94,0.00,,,0.03,weatherlink.com 1.10,2013-02-16 12:17:00,
2013-02-16 07:32:00,32.1,31.0,29.97,ESE,102,0.0,1.0,94,0.00,,,0.03,weatherlink.com 1.10,2013-02-16 12:32:00,
2013-02-16 07:47:00,31.9,30.0,29.97,WSW,245,0.0,1.0,94,0.00,,,0.03,weatherlink.com 1.10,2013-02-16 12:47:00,
2013-02-16 08:02:00,31.9,30.0,29.97,SW,235,0.0,2.0,94,0.00,,,0.03,weatherlink.com 1.10,2013-02-16 13:02:00,
2013-02-16 08:17:00,32.0,31.0,29.98,South,187,0.0,1.0,94,0.00,,,0.03,weatherlink.com 1.10,2013-02-16 13:17:00,
2013-02-16 08:32:00,32.2,31.0,29.98,ESE,121,0.0,0.0,94,0.00,,,0.03,weatherlink.com 1.10,2013-02-16 13:32:00,
2013-02-16 08:47:00,32.6,31.0,29.97,SE,131,0.0,1.0,93,0.00,,,0.03,weatherlink.com 1.10,2013-02-16 13:47:00,
2013-02-16 09:02:00,32.8,31.0,29.97,ESE,122,0.0,1.0,93,0.00,,,0.03,weatherlink.com 1.10,2013-02-16 14:02:00,
2013-02-16 09:17:00,32.9,30.0,29.96,SSE,153,1.0,2.0,87,0.00,,,0.03,weatherlink.com 1.10,2013-02-16 14:17:00,
2013-02-16 09:32:00,33.7,30.0,29.96,ESE,119,2.0,2.0,85,0.00,,,0.03,weatherlink.com 1.10,2013-02-16 14:32:00,
2013-02-16 09:47:00,33.9,29.0,29.96,ESE,108,1.0,2.0,83,0.00,,,0.03,weatherlink.com 1.10,2013-02-16 14:47:00,
2013-02-16 10:02:00,34.4,29.0,29.96,ESE,120,0.0,3.0,80,0.00,,,0.03,weatherlink.com 1.10,2013-02-16 15:02:00,
2013-02-16 10:17:00,34.7,28.0,29.95,SSE,159,1.0,3.0,76,0.00,,,0.03,weatherlink.com 1.10,2013-02-16 15:17:00,
2013-02-16 10:32:00,35.0,28.0,29.95,SSE,147,2.0,4.0,74,0.00,,,0.03,weatherlink.com 1.10,2013-02-16 15:32:00,
2013-02-16 10:47:00,35.1,27.0,29.95,SE,125,1.0,2.0,72,0.00,,,0.03,weatherlink.com 1.10,2013-02-16 15:47:00,
2013-02-16 11:02:00,35.5,27.0,29.95,ESE,117,1.0,4.0,70,0.00,,,0.03,weatherlink.com 1.10,2013-02-16 16:02:00,
2013-02-16 11:17:00,36.1,26.0,29.94,SE,124,1.0,2.0,68,0.00,,,0.03,weatherlink.com 1.10,2013-02-16 16:17:00,
2013-02-16 11:32:00,36.4,25.0,29.93,WNW,301,1.0,3.0,63,0.00,,,0.03,weatherlink.com 1.10,2013-02-16 16:32:00,
2013-02-16 11:47:00,36.7,24.0,29.93,West,281,0.0,3.0,60,0.00,,,0.03,weatherlink.com 1.10,2013-02-16 16:47:00,
2013-02-16 12:03:00,37.3,24.0,29.93,WNW,297,0.0,3.0,59,0.00,,,0.03,weatherlink.com 1.10,2013-02-16 17:03:00,
2013-02-16 12:18:00,38.4,25.0,29.92,SE,126,3.0,3.0,58,0.00,,,0.03,weatherlink.com 1.10,2013-02-16 17:18:00,
2013-02-16 12:47:00,39.3,23.0,29.91,SE,124,2.0,3.0,53,0.00,,,0.03,weatherlink.com 1.10,2013-02-16 17:47:00,
2013-02-16 13:02:00,38.0,23.0,29.91,SE,136,1.0,3.0,55,0.00,,,0.03,weatherlink.com 1.10,2013-02-16 18:02:00,
2013-02-16 13:17:00,37.9,24.0,29.90,SSE,147,1.0,3.0,57,0.00,,,0.03,weatherlink.com 1.10,2013-02-16 18:17:00,
2013-02-16 13:32:00,37.4,23.0,29.90,SE,141,1.0,4.0,56,0.00,,,0.03,weatherlink.com 1.10,2013-02-16 18:32:00,
2013-02-16 13:48:00,36.9,23.0,29.89,ESE,108,0.0,3.0,58,0.00,,,0.03,weatherlink.com 1.10,2013-02-16 18:48:00,
2013-02-16 14:03:00,37.4,24.0,29.89,NW,326,0.0,2.0,58,0.00,,,0.03,weatherlink.com 1.10,2013-02-16 19:03:00,
2013-02-16 14:18:00,37.7,23.0,29.87,SE,134,0.0,4.0,56,0.00,,,0.03,weatherlink.com 1.10,2013-02-16 19:18:00,
2013-02-16 14:33:00,36.7,23.0,29.87,West,271,0.0,4.0,58,0.00,,,0.03,weatherlink.com 1.10,2013-02-16 19:33:00,
2013-02-16 14:48:00,36.5,23.0,29.87,SSE,161,0.0,2.0,58,0.00,,,0.03,weatherlink.com 1.10,2013-02-16 19:48:00,
2013-02-16 15:03:00,35.8,23.0,29.88,SE,124,0.0,3.0,59,0.00,,,0.03,weatherlink.com 1.10,2013-02-16 20:03:00,
2013-02-16 15:18:00,35.2,23.0,29.89,ESE,120,1.0,2.0,61,0.00,,,0.03,weatherlink.com 1.10,2013-02-16 20:18:00,
2013-02-16 15:33:00,34.5,22.0,29.89,SE,128,0.0,3.0,60,0.00,,,0.03,weatherlink.com 1.10,2013-02-16 20:33:00,
2013-02-16 15:48:00,34.1,22.0,29.88,SE,125,0.0,2.0,62,0.00,,,0.03,weatherlink.com 1.10,2013-02-16 20:48:00,
2013-02-16 16:03:00,33.9,21.0,29.87,ESE,117,1.0,2.0,60,0.00,,,0.03,weatherlink.com 1.10,2013-02-16 21:03:00,
2013-02-16 16:18:00,33.6,20.0,29.87,SE,128,1.0,1.0,59,0.00,,,0.03,weatherlink.com 1.10,2013-02-16 21:18:00,
2013-02-16 16:33:00,33.5,21.0,29.87,ESE,120,0.0,1.0,60,0.00,,,0.03,weatherlink.com 1.10,2013-02-16 21:33:00,
2013-02-16 16:49:00,33.1,20.0,29.87,SE,134,0.0,2.0,59,0.00,,,0.03,weatherlink.com 1.10,2013-02-16 21:49:00,
2013-02-16 17:03:00,32.7,20.0,29.87,ESE,116,0.0,1.0,59,0.00,,,0.03,weatherlink.com 1.10,2013-02-16 22:03:00,
2013-02-16 17:18:00,32.5,19.0,29.86,SE,129,1.0,1.0,57,0.00,,,0.03,weatherlink.com 1.10,2013-02-16 22:18:00,
2013-02-16 17:33:00,32.2,19.0,29.86,ESE,115,0.0,1.0,58,0.00,,,0.03,weatherlink.com 1.10,2013-02-16 22:33:00,
2013-02-16 17:48:00,32.1,20.0,29.87,SE,124,0.0,2.0,61,0.00,,,0.03,weatherlink.com 1.10,2013-02-16 22:48:00,
2013-02-16 18:03:00,31.7,19.0,29.87,ESE,122,0.0,1.0,59,0.00,,,0.03,weatherlink.com 1.10,2013-02-16 23:03:00,
2013-02-16 18:18:00,31.5,18.0,29.86,SSE,153,0.0,2.0,57,0.00,,,0.03,weatherlink.com 1.10,2013-02-16 23:18:00,
2013-02-16 18:33:00,31.2,18.0,29.86,SE,132,0.0,2.0,58,0.00,,,0.03,weatherlink.com 1.10,2013-02-16 23:33:00,
2013-02-16 18:48:00,31.0,17.0,29.86,ESE,106,1.0,2.0,56,0.00,,,0.03,weatherlink.com 1.10,2013-02-16 23:48:00,
2013-02-16 19:03:00,30.8,17.0,29.84,ESE,120,1.0,2.0,57,0.00,,,0.03,weatherlink.com 1.10,2013-02-17 00:03:00,
2013-02-16 19:18:00,30.6,16.0,29.84,SSE,163,0.0,2.0,56,0.00,,,0.03,weatherlink.com 1.10,2013-02-17 00:18:00,
2013-02-16 19:33:00,30.6,16.0,29.84,SSE,155,0.0,4.0,56,0.00,,,0.03,weatherlink.com 1.10,2013-02-17 00:33:00,
2013-02-16 19:48:00,30.5,17.0,29.84,SE,135,0.0,5.0,57,0.00,,,0.03,weatherlink.com 1.10,2013-02-17 00:48:00,
2013-02-16 20:03:00,30.4,17.0,29.83,SSE,162,0.0,5.0,57,0.00,,,0.03,weatherlink.com 1.10,2013-02-17 01:03:00,
2013-02-16 20:18:00,30.4,17.0,29.83,SSE,162,0.0,6.0,57,0.00,,,0.03,weatherlink.com 1.10,2013-02-17 01:18:00,
2013-02-16 20:34:00,30.2,16.0,29.84,South,185,0.0,2.0,56,0.00,,,0.03,weatherlink.com 1.10,2013-02-17 01:34:00,
2013-02-16 20:49:00,30.2,16.0,29.83,SSW,205,0.0,7.0,56,0.00,,,0.03,weatherlink.com 1.10,2013-02-17 01:49:00,
2013-02-16 21:03:00,30.1,16.0,29.83,SE,132,0.0,4.0,57,0.00,,,0.03,weatherlink.com 1.10,2013-02-17 02:03:00,
2013-02-16 21:19:00,30.0,15.0,29.83,SSE,162,0.0,5.0,55,0.00,,,0.03,weatherlink.com 1.10,2013-02-17 02:19:00,
2013-02-16 21:33:00,29.8,16.0,29.84,South,188,1.0,8.0,56,0.00,,,0.03,weatherlink.com 1.10,2013-02-17 02:33:00,
2013-02-16 21:49:00,29.6,16.0,29.83,SE,128,2.0,2.0,58,0.00,,,0.03,weatherlink.com 1.10,2013-02-17 02:49:00,
2013-02-16 22:03:00,29.2,15.0,29.82,SSE,157,0.0,7.0,56,0.00,,,0.03,weatherlink.com 1.10,2013-02-17 03:03:00,
2013-02-16 22:19:00,28.9,15.0,29.81,SSE,164,0.0,6.0,56,0.00,,,0.03,weatherlink.com 1.10,2013-02-17 03:19:00,
2013-02-16 22:34:00,28.6,14.0,29.80,SE,138,3.0,7.0,55,0.00,,,0.03,weatherlink.com 1.10,2013-02-17 03:34:00,
2013-02-16 22:49:00,28.4,14.0,29.79,South,187,0.0,5.0,56,0.00,,,0.03,weatherlink.com 1.10,2013-02-17 03:49:00,
2013-02-16 23:04:00,28.0,14.0,29.79,SSE,153,0.0,4.0,55,0.00,,,0.03,weatherlink.com 1.10,2013-02-17 04:04:00,
2013-02-16 23:19:00,27.8,13.0,29.78,SSE,155,1.0,4.0,53,0.00,,,0.03,weatherlink.com 1.10,2013-02-17 04:19:00,
2013-02-16 23:34:00,27.6,13.0,29.77,SSE,147,0.0,3.0,55,0.00,,,0.03,weatherlink.com 1.10,2013-02-17 04:34:00,